createdAt,value
2023-03-26T00:01:23.826Z,15.70
2023-03-26T00:03:54.731Z,15.60
2023-03-26T00:06:24.209Z,15.50
2023-03-26T00:08:52.576Z,15.40
2023-03-26T00:11:21.867Z,15.40
2023-03-26T00:13:49.486Z,15.40
2023-03-26T00:16:19.686Z,15.40
2023-03-26T00:18:47.307Z,15.30
2023-03-26T00:21:17.116Z,15.30
2023-03-26T00:23:44.591Z,15.30
2023-03-26T00:26:11.870Z,15.20
2023-03-26T00:28:42.606Z,15.20
2023-03-26T00:31:12.764Z,15.10
2023-03-26T00:33:40.848Z,15.10
2023-03-26T00:36:11.879Z,15.10
2023-03-26T00:38:39.512Z,15.00
2023-03-26T00:41:08.398Z,15.00
2023-03-26T00:43:36.383Z,14.80
2023-03-26T00:46:03.454Z,14.70
2023-03-26T00:48:42.236Z,14.60
2023-03-26T00:51:15.533Z,14.50
2023-03-26T00:53:47.431Z,14.50
2023-03-26T00:56:14.330Z,14.40
2023-03-26T00:58:41.551Z,14.20
2023-03-26T01:01:14.401Z,14.10
2023-03-26T07:56:09.085Z,13.20
2023-03-26T07:59:12.730Z,13.20
2023-03-26T08:01:51.714Z,13.40
2023-03-26T08:04:55.685Z,13.40
2023-03-26T08:08:02.945Z,13.50
2023-03-26T08:10:41.273Z,13.60
2023-03-26T08:13:31.755Z,13.70
2023-03-26T08:16:20.715Z,13.70
2023-03-26T08:19:10.898Z,13.80
2023-03-26T08:22:12.307Z,13.90
2023-03-26T08:25:13.928Z,14.10
2023-03-26T08:28:01.902Z,14.10
2023-03-26T08:30:28.965Z,14.20
2023-03-26T08:33:04.794Z,14.20
2023-03-26T08:35:32.394Z,14.20
2023-03-26T08:37:59.327Z,14.20
2023-03-26T08:40:44.295Z,14.30
2023-03-26T08:43:25.812Z,14.30
2023-03-26T08:46:25.531Z,14.40
2023-03-26T08:49:29.598Z,14.60
2023-03-26T08:52:15.414Z,14.70
2023-03-26T08:55:06.742Z,14.90
2023-03-26T08:58:09.061Z,15.10
2023-03-26T09:01:07.155Z,15.20
2023-03-26T09:03:58.586Z,15.10
2023-03-26T09:06:37.085Z,15.20
2023-03-26T09:09:37.055Z,15.30
2023-03-26T09:12:25.488Z,15.50
2023-03-26T09:14:55.454Z,15.70
2023-03-26T09:17:37.326Z,15.80
2023-03-26T09:20:59.684Z,15.90
2023-03-26T09:23:29.040Z,16.10
2023-03-26T09:26:10.784Z,16.10
2023-03-26T09:29:44.997Z,16.40
2023-03-26T09:32:25.264Z,16.50
2023-03-26T09:34:57.875Z,16.70
2023-03-26T09:37:56.132Z,16.70
2023-03-26T09:40:45.307Z,16.70
2023-03-26T09:43:55.727Z,16.50
2023-03-26T09:47:03.394Z,16.40
2023-03-26T09:49:46.503Z,16.20
2023-03-26T09:52:24.764Z,16.20
2023-03-26T09:55:13.100Z,15.90
2023-03-26T09:58:15.534Z,15.80
2023-03-26T10:01:05.957Z,15.70
2023-03-26T10:03:45.771Z,15.60
2023-03-26T10:06:15.764Z,15.60
2023-03-26T10:08:54.402Z,15.50
2023-03-26T10:11:33.269Z,15.50
2023-03-26T10:14:06.127Z,15.50
2023-03-26T10:16:51.513Z,15.50
2023-03-26T10:19:19.230Z,15.60
2023-03-26T10:21:51.818Z,15.70
2023-03-26T10:24:55.987Z,16.00
2023-03-26T10:27:32.259Z,16.20
2023-03-26T10:30:23.854Z,16.40
2023-03-26T10:32:53.757Z,16.50
2023-03-26T10:35:37.186Z,16.60
2023-03-26T10:38:18.991Z,16.50
2023-03-26T10:40:54.753Z,16.40
2023-03-26T10:43:28.009Z,16.40
2023-03-26T10:46:03.071Z,16.20
2023-03-26T10:48:44.652Z,16.10
2023-03-26T10:51:30.056Z,15.90
2023-03-26T10:54:14.322Z,15.80
2023-03-26T10:56:50.153Z,15.70
2023-03-26T10:59:19.128Z,15.70
2023-03-26T11:02:06.062Z,15.60
2023-03-26T11:05:07.561Z,15.50
2023-03-26T11:07:53.896Z,15.60
2023-03-26T11:10:21.439Z,15.60
2023-03-26T11:12:57.590Z,15.50
2023-03-26T11:15:27.627Z,15.50
2023-03-26T11:18:13.575Z,15.40
2023-03-26T11:20:46.060Z,15.30
2023-03-26T11:23:38.376Z,15.40
2023-03-26T11:26:23.828Z,15.40
2023-03-26T11:29:31.703Z,15.50
2023-03-26T11:32:06.107Z,15.40
2023-03-26T11:35:00.922Z,15.50
2023-03-26T11:37:35.240Z,15.50
2023-03-26T11:40:11.529Z,15.50
2023-03-26T11:42:38.929Z,15.40
2023-03-26T11:45:14.759Z,15.40
2023-03-26T11:48:08.244Z,15.40
2023-03-26T11:50:41.167Z,15.30
2023-03-26T11:53:13.705Z,15.10
2023-03-26T11:56:06.136Z,15.00
2023-03-26T11:59:07.628Z,14.90
2023-03-26T12:01:59.146Z,14.80
2023-03-26T12:04:35.897Z,14.80
2023-03-26T12:07:31.870Z,14.90
2023-03-26T12:10:18.013Z,15.00
2023-03-26T12:12:47.558Z,15.10
2023-03-26T12:15:20.336Z,15.00
2023-03-26T12:17:51.499Z,15.10
2023-03-26T12:20:27.831Z,15.20
2023-03-26T12:23:02.628Z,15.30
2023-03-26T12:25:32.097Z,15.40
2023-03-26T12:28:13.477Z,15.40
2023-03-26T12:31:02.920Z,15.10
2023-03-26T12:33:34.594Z,14.90
2023-03-26T12:36:26.523Z,14.90
2023-03-26T12:39:17.188Z,14.80
2023-03-26T12:43:19.754Z,14.90
2023-03-26T12:44:55.340Z,14.90
2023-03-26T12:48:01.144Z,15.10
2023-03-26T12:50:18.131Z,15.20
2023-03-26T12:53:37.664Z,15.40
2023-03-26T12:56:36.810Z,15.60
2023-03-26T12:59:12.303Z,15.60
2023-03-26T13:02:03.967Z,15.50
2023-03-26T13:04:39.377Z,15.50
2023-03-26T13:07:13.723Z,15.50
2023-03-26T13:10:22.450Z,15.70
2023-03-26T13:13:28.242Z,15.80
2023-03-26T13:16:04.012Z,15.80
2023-03-26T13:18:46.172Z,15.70
2023-03-26T13:21:22.379Z,15.50
2023-03-26T13:24:14.199Z,15.60
2023-03-26T13:27:03.501Z,15.60
2023-03-26T13:30:11.984Z,15.50
2023-03-26T13:32:58.847Z,15.50
2023-03-26T13:36:14.457Z,15.50
2023-03-26T13:39:05.020Z,15.40
2023-03-26T13:41:44.091Z,15.40
2023-03-26T13:44:29.815Z,15.50
2023-03-26T13:47:04.957Z,15.50
2023-03-26T13:49:40.792Z,15.50
2023-03-26T13:52:24.697Z,15.50
2023-03-26T13:55:30.090Z,15.60
2023-03-26T13:58:20.912Z,15.70
2023-03-26T14:01:02.343Z,15.70
2023-03-26T14:03:55.396Z,15.60
2023-03-26T14:06:46.661Z,15.50
2023-03-26T14:09:37.216Z,15.50
2023-03-26T14:12:24.858Z,15.40
2023-03-26T14:15:04.930Z,15.20
2023-03-26T14:17:47.434Z,15.20
2023-03-26T14:20:33.044Z,15.20
2023-03-26T14:23:02.938Z,15.20
2023-03-26T14:25:38.282Z,15.30
2023-03-26T14:28:44.182Z,15.30
2023-03-26T14:31:48.135Z,15.20
2023-03-26T14:34:45.479Z,15.10
2023-03-26T14:37:29.238Z,15.20
2023-03-26T14:40:26.780Z,15.30
2023-03-26T14:42:58.339Z,15.30
2023-03-26T14:45:37.184Z,15.30
2023-03-26T14:48:29.290Z,15.30
2023-03-26T14:51:11.040Z,15.40
2023-03-26T14:53:43.197Z,15.40
2023-03-26T14:56:43.964Z,15.40
2023-03-26T14:59:22.602Z,15.50
2023-03-26T15:02:11.400Z,15.40
2023-03-26T15:04:59.739Z,15.50
2023-03-26T15:07:32.659Z,15.40
2023-03-26T15:10:15.546Z,15.50
2023-03-26T15:13:01.526Z,15.60
2023-03-26T15:15:41.188Z,15.60
2023-03-26T15:18:57.240Z,15.80
2023-03-26T15:22:01.632Z,15.90
2023-03-26T15:24:59.261Z,15.80
2023-03-26T15:28:08.253Z,15.70
2023-03-26T15:31:11.390Z,15.70
2023-03-26T15:34:27.526Z,15.70
2023-03-26T15:37:00.455Z,15.60
2023-03-26T15:40:08.486Z,15.70
2023-03-26T15:42:52.910Z,15.60
2023-03-26T15:45:40.515Z,15.50
2023-03-26T15:48:10.956Z,15.30
2023-03-26T15:50:58.166Z,15.20
2023-03-26T15:53:43.853Z,15.10
2023-03-26T15:56:23.167Z,14.80
2023-03-26T15:59:14.492Z,14.60
2023-03-26T16:02:12.054Z,14.50
2023-03-26T16:04:51.100Z,14.40
2023-03-26T16:07:51.245Z,14.40
2023-03-26T16:10:30.140Z,14.90
2023-03-26T16:13:34.633Z,15.60
2023-03-26T16:16:04.415Z,16.30
2023-03-26T16:18:32.979Z,16.80
2023-03-26T16:21:31.242Z,17.00
2023-03-26T16:24:08.279Z,16.90
2023-03-26T16:26:47.093Z,16.80
2023-03-26T16:29:30.525Z,16.80
2023-03-26T16:32:16.724Z,16.70
2023-03-26T16:35:09.344Z,16.90
2023-03-26T16:37:43.773Z,16.90
2023-03-26T16:40:16.792Z,17.10
2023-03-26T16:43:20.421Z,17.10
2023-03-26T16:45:57.087Z,17.10
2023-03-26T16:48:36.133Z,17.10
2023-03-26T16:51:32.223Z,16.90
2023-03-26T16:54:26.353Z,16.60
2023-03-26T16:57:24.948Z,16.30
2023-03-26T17:00:24.866Z,16.20
2023-03-26T17:03:17.659Z,15.90
2023-03-26T17:06:03.474Z,15.50
2023-03-26T17:08:59.353Z,15.30
2023-03-26T17:11:44.171Z,15.00
2023-03-26T17:14:22.823Z,14.60
2023-03-26T17:17:04.256Z,14.30
2023-03-26T17:19:48.110Z,14.20
2023-03-26T17:22:24.264Z,14.00
2023-03-26T17:25:23.913Z,13.80
2023-03-26T17:28:13.987Z,13.70
2023-03-26T17:31:04.999Z,13.70
2023-03-26T17:33:36.758Z,13.70
2023-03-26T17:36:12.748Z,13.60
2023-03-26T17:38:39.672Z,13.60
2023-03-26T17:41:08.100Z,13.60
2023-03-26T17:43:52.563Z,13.50
2023-03-26T17:46:37.582Z,13.50
2023-03-26T17:49:24.555Z,13.30
2023-03-26T17:51:58.108Z,13.20
2023-03-26T17:54:41.727Z,13.20
2023-03-26T17:57:29.592Z,13.10
2023-03-26T17:59:58.704Z,13.10
2023-03-26T18:02:42.418Z,13.00
2023-03-26T18:05:16.289Z,13.00
2023-03-26T18:08:07.827Z,12.90
2023-03-26T18:10:39.853Z,12.80
2023-03-26T18:13:18.446Z,12.90
2023-03-26T18:15:48.763Z,12.80
2023-03-26T18:18:42.228Z,12.80
2023-03-26T18:21:16.885Z,12.80
2023-03-26T18:23:48.852Z,12.70
2023-03-26T18:26:22.392Z,12.70
2023-03-26T18:28:53.451Z,12.70
2023-03-26T18:31:24.617Z,12.70
2023-03-26T18:33:59.067Z,12.60
2023-03-26T18:36:30.252Z,12.60
2023-03-26T18:39:00.612Z,12.70
2023-03-26T18:41:41.970Z,12.60
2023-03-26T18:44:18.231Z,12.60
2023-03-26T18:46:45.976Z,12.60
2023-03-26T18:49:15.456Z,12.50
2023-03-26T18:51:56.178Z,12.50
2023-03-26T18:54:24.414Z,12.40
2023-03-26T18:56:52.623Z,12.40
2023-03-26T18:59:31.906Z,12.40
2023-03-26T19:02:11.244Z,12.40
2023-03-26T19:04:38.732Z,12.40
2023-03-26T19:07:14.033Z,12.30
2023-03-26T19:09:42.658Z,12.40
2023-03-26T19:12:23.010Z,12.30
2023-03-26T19:15:04.054Z,12.30
2023-03-26T19:17:38.732Z,12.30
2023-03-26T19:20:13.841Z,12.30
2023-03-26T19:22:42.352Z,12.20
2023-03-26T19:25:21.001Z,12.20
2023-03-26T19:27:50.200Z,12.20
2023-03-26T19:30:40.006Z,12.20
2023-03-26T19:33:18.383Z,12.20
2023-03-26T19:35:51.659Z,12.30
2023-03-26T19:38:29.915Z,12.30
2023-03-26T19:40:58.465Z,12.30
2023-03-26T19:43:26.265Z,12.20
2023-03-26T19:46:00.294Z,12.20
2023-03-26T19:48:45.251Z,12.10
2023-03-26T19:51:21.012Z,12.20
2023-03-26T19:53:58.247Z,12.30
2023-03-26T19:56:25.592Z,12.40
2023-03-26T19:58:53.198Z,12.30
2023-03-26T20:01:26.719Z,12.40
2023-03-26T20:04:00.383Z,12.50
2023-03-26T20:06:42.430Z,12.60
2023-03-26T20:09:12.852Z,12.60
2023-03-26T20:11:40.956Z,12.60
2023-03-26T20:14:26.582Z,12.60
2023-03-26T20:16:53.883Z,12.50
2023-03-26T20:19:20.768Z,12.50
2023-03-26T20:21:47.622Z,12.50
2023-03-26T20:24:17.516Z,12.40
2023-03-26T20:26:48.092Z,12.50
2023-03-26T20:29:15.923Z,12.50
2023-03-26T20:31:43.338Z,12.40
2023-03-26T20:34:19.769Z,12.40
2023-03-26T20:36:47.418Z,12.30
2023-03-26T20:39:14.676Z,12.30
2023-03-26T20:41:48.412Z,12.30
2023-03-26T20:44:21.205Z,12.30
2023-03-26T20:46:49.760Z,12.30
2023-03-26T20:49:19.419Z,12.30
2023-03-26T20:51:46.928Z,12.30
2023-03-26T20:54:20.244Z,12.40
2023-03-26T20:56:49.092Z,12.40
2023-03-26T20:59:22.934Z,12.30
2023-03-26T21:01:50.413Z,12.50
2023-03-26T21:04:19.201Z,12.50
2023-03-26T21:06:46.620Z,12.50
2023-03-26T21:09:17.625Z,12.40
2023-03-26T21:12:00.582Z,12.40
2023-03-26T21:14:41.252Z,12.50
2023-03-26T21:17:22.537Z,12.40
2023-03-26T21:19:50.118Z,12.40
2023-03-26T21:22:28.822Z,12.40
2023-03-26T21:25:07.480Z,12.40
2023-03-26T21:27:44.449Z,12.40
2023-03-26T21:30:16.627Z,12.40
2023-03-26T21:32:45.736Z,12.40
2023-03-26T21:35:14.971Z,12.40
2023-03-26T21:37:44.130Z,12.30
2023-03-26T21:40:14.461Z,12.40
2023-03-26T21:42:44.478Z,12.30
2023-03-26T21:45:12.622Z,12.30
2023-03-26T21:47:40.816Z,12.30
2023-03-26T21:50:09.091Z,12.30
2023-03-26T21:52:37.242Z,12.30
2023-03-26T21:55:07.948Z,12.20
2023-03-26T21:57:57.500Z,12.20
2023-03-26T22:00:42.753Z,12.20
2023-03-26T22:03:43.836Z,12.20
2023-03-26T22:06:33.004Z,12.20
2023-03-26T22:09:00.121Z,12.20
2023-03-26T22:11:26.975Z,12.30
2023-03-26T22:13:55.643Z,12.30
2023-03-26T22:16:25.474Z,12.20
2023-03-26T22:18:53.821Z,12.20
2023-03-26T22:21:23.516Z,12.20
2023-03-26T22:23:54.046Z,12.20
2023-03-26T22:26:24.882Z,12.20
2023-03-26T22:28:52.024Z,12.20
2023-03-26T22:31:19.205Z,12.30
2023-03-26T22:33:46.215Z,12.30
2023-03-26T22:36:23.446Z,12.40
2023-03-26T22:38:53.666Z,12.40
2023-03-26T22:41:21.549Z,12.40
2023-03-26T22:43:48.659Z,12.40
2023-03-26T22:46:16.179Z,12.50
2023-03-26T22:48:45.853Z,12.50
2023-03-26T22:51:12.899Z,12.60
2023-03-26T22:53:39.789Z,12.60
2023-03-26T22:56:08.069Z,12.60
2023-03-26T22:58:35.418Z,12.60
2023-03-26T23:01:20.545Z,12.60
2023-03-26T23:03:47.586Z,12.60
2023-03-26T23:06:15.359Z,12.60
2023-03-26T23:08:42.673Z,12.50
2023-03-26T23:11:10.768Z,12.50
2023-03-26T23:13:37.619Z,12.50
2023-03-26T23:16:05.043Z,12.60
2023-03-26T23:18:32.216Z,12.50
2023-03-26T23:20:59.441Z,12.50
2023-03-26T23:23:29.013Z,12.50
2023-03-26T23:25:58.761Z,12.40
2023-03-26T23:28:32.017Z,12.40
2023-03-26T23:31:04.334Z,12.40
2023-03-26T23:33:35.299Z,12.40
2023-03-26T23:36:08.834Z,12.40
2023-03-26T23:38:44.184Z,12.40
2023-03-26T23:41:15.340Z,12.40
2023-03-26T23:43:53.384Z,12.30
2023-03-26T23:46:24.433Z,12.30
2023-03-26T23:48:52.235Z,12.30
2023-03-26T23:51:22.499Z,12.30
2023-03-26T23:53:49.774Z,12.30
2023-03-26T23:56:17.338Z,12.30
2023-03-26T23:58:44.450Z,12.30
